Terminal Aerodrome Forecast
Issued by NWS Corpus Christi, TX

Home | Current Version | Previous Version | Text Only | Print | Product List | Glossary On
Versions: 1 2 3 4 5 6 7 8 9 10 11 12 13 14 15 16 17 18
000
FTUS44 KCRP 310500
TAFVCT
TAF
KVCT 310530Z 3106/0106 08008KT P6SM SCT015 BKN035
     FM310900 07006KT P6SM OVC015
     FM311200 10011KT P6SM SCT008 OVC015
      TEMPO 3112/3116 5SM BR BKN008
     FM311600 13014KT P6SM BKN015 OVC120
     FM312000 14017G23KT P6SM BKN025 OVC120
     FM010100 14012KT P6SM BKN012 OVC100
     FM010300 13008KT 4SM BR OVC008=

USA.gov is the U.S. government's official web portal to all federal, state and local government web resources and services.